EDFH Airport Information

Runway Information
Runway 03 Length 12467 ft width 148 ft
Elevation 1649 ft Threshold 3461 ft Heading 32
Runway 21 Length 12467 ft Width 148 ft
Elevation 1595 ft Threshold 984 ft Heading 212
Airport Frequencies
Type AFIS Name LANGEN INF Frequency 123.525 MHZ
Type APP Name LANGEN RAD Frequency 125.6 MHZ
Type ATIS Name ATIS Frequency 136.35 MHZ
Type GND Name GND Frequency 121.975 MHZ
Type TWR Name TWR Frequency 119.65 MHZ
Airport Navaids
Type NDB Name Hahn Frequency 376 KHZ
Type DME Name Hahn Frequency 116950 KHZ
Airport Weather Information & NOTAM
ADDS - METARS form results

(1427 UTC 24 June 2018)
 
METAR text: EDFH 241420Z 32009KT 300V360 9999 SCT045 17/07 Q1022
Conditions at: EDFH (HAHN , DE) observed 1420 UTC 24 June 2018
Temperature: 17.0°C (63°F)
Dewpoint: 7.0°C (45°F) [RH = 52%]
Pressure (altimeter): 30.18 inches Hg (1022.0 mb)
Winds: from the NW (320 degrees) at 10 MPH (9 knots; 4.7 m/s)
Visibility: 6 or more miles (10+ km)
Ceiling: at least 12,000 feet AGL
Clouds: scattered clouds at 4500 feet AGL
Weather: no significant weather observed at this time

METAR text: EDFH 241350Z 32007KT 290V040 9999 SCT042 17/07 Q1022
Conditions at: EDFH (HAHN , DE) observed 1350 UTC 24 June 2018
Temperature: 17.0°C (63°F)
Dewpoint: 7.0°C (45°F) [RH = 52%]
Pressure (altimeter): 30.18 inches Hg (1022.0 mb)
Winds: from the NW (320 degrees) at 8 MPH (7 knots; 3.6 m/s)
Visibility: 6 or more miles (10+ km)
Ceiling: at least 12,000 feet AGL
Clouds: scattered clouds at 4200 feet AGL
Weather: no significant weather observed at this time